createdAt,value
2018-12-04T00:01:35.208Z,9.44
2018-12-04T00:04:03.461Z,9.60
2018-12-04T00:06:31.697Z,9.68
2018-12-04T00:08:59.963Z,9.54
2018-12-04T00:11:28.294Z,9.39
2018-12-04T00:13:56.545Z,9.35
2018-12-04T00:16:24.799Z,9.48
2018-12-04T00:18:53.184Z,9.56
2018-12-04T00:21:21.419Z,9.48
2018-12-04T00:23:49.668Z,9.71
2018-12-04T00:26:18.048Z,9.52
2018-12-04T00:28:46.333Z,9.36
2018-12-04T00:31:14.613Z,9.42
2018-12-04T00:33:42.873Z,9.49
2018-12-04T00:36:11.129Z,9.46
2018-12-04T00:38:39.372Z,9.39
2018-12-04T00:41:07.638Z,9.16
2018-12-04T00:43:35.877Z,9.04
2018-12-04T00:46:04.148Z,9.11
2018-12-04T00:48:32.383Z,9.08
2018-12-04T00:51:00.767Z,9.00
2018-12-04T00:53:29.038Z,9.24
2018-12-04T00:55:57.325Z,9.16
2018-12-04T00:58:25.585Z,9.10
2018-12-04T01:00:53.912Z,9.01
2018-12-04T01:03:22.152Z,9.07
2018-12-04T01:05:50.420Z,9.18
2018-12-04T01:08:18.693Z,9.18
2018-12-04T01:10:46.993Z,9.16
2018-12-04T01:13:15.289Z,9.39
2018-12-04T01:15:43.576Z,9.43
2018-12-04T01:18:11.848Z,9.50
2018-12-04T01:20:40.209Z,9.34
2018-12-04T01:23:08.491Z,9.31
2018-12-04T01:25:37.014Z,9.25
2018-12-04T01:28:05.252Z,9.24
2018-12-04T01:30:33.499Z,9.18
2018-12-04T01:33:01.763Z,9.09
2018-12-04T01:35:30.118Z,9.18
2018-12-04T01:37:58.361Z,9.28
2018-12-04T01:40:26.624Z,9.39
2018-12-04T01:42:54.914Z,9.39
2018-12-04T01:45:23.247Z,9.49
2018-12-04T01:47:51.503Z,9.50
2018-12-04T01:50:19.760Z,9.44
2018-12-04T01:52:48.037Z,9.69
2018-12-04T01:55:16.399Z,9.66
2018-12-04T01:57:44.697Z,9.72
2018-12-04T02:00:12.954Z,9.66
2018-12-04T02:02:41.193Z,9.64
2018-12-04T02:05:09.484Z,9.70
2018-12-04T02:07:37.752Z,9.81
2018-12-04T02:10:06.118Z,9.77
2018-12-04T02:12:34.393Z,9.65
2018-12-04T02:15:04.169Z,9.38
2018-12-04T02:17:32.437Z,9.37
2018-12-04T02:20:00.696Z,9.34
2018-12-04T02:22:28.940Z,9.14
2018-12-04T02:24:57.363Z,9.18
2018-12-04T02:27:25.663Z,8.99
2018-12-04T02:29:53.908Z,8.78
2018-12-04T02:32:22.168Z,8.99
2018-12-04T02:34:50.417Z,9.05
2018-12-04T02:37:18.698Z,8.92
2018-12-04T02:39:46.981Z,9.03
2018-12-04T02:44:55.346Z,9.19
2018-12-04T02:47:23.575Z,9.15
2018-12-04T02:49:51.846Z,9.28
2018-12-04T02:52:20.093Z,9.04
2018-12-04T02:54:48.337Z,9.04
2018-12-04T02:57:16.843Z,9.03
2018-12-04T02:59:45.088Z,9.15
2018-12-04T03:02:13.358Z,9.10
2018-12-04T03:04:41.621Z,9.10
2018-12-04T03:07:09.880Z,9.16
2018-12-04T03:09:38.159Z,8.92
2018-12-04T03:12:06.441Z,8.86
2018-12-04T03:14:34.704Z,8.83
2018-12-04T03:17:02.948Z,8.78
2018-12-04T03:19:31.208Z,8.78
2018-12-04T03:21:59.449Z,8.78
2018-12-04T03:24:27.740Z,8.79
2018-12-04T03:26:55.997Z,8.84
2018-12-04T03:29:24.332Z,8.78
2018-12-04T03:31:53.269Z,8.66
2018-12-04T03:34:21.543Z,8.45
2018-12-04T03:36:49.836Z,8.53
2018-12-04T03:39:18.100Z,8.56
2018-12-04T03:41:46.481Z,8.61
2018-12-04T03:44:14.765Z,8.57
2018-12-04T03:46:43.024Z,8.56
2018-12-04T03:49:11.534Z,8.76
2018-12-04T03:51:39.778Z,8.75
2018-12-04T03:54:08.020Z,8.82
2018-12-04T03:56:36.323Z,8.81
2018-12-04T03:59:04.632Z,8.80
2018-12-04T04:01:32.905Z,8.65
2018-12-04T04:04:02.385Z,8.68
2018-12-04T04:06:30.616Z,8.55
2018-12-04T04:08:58.911Z,8.45
2018-12-04T04:11:28.280Z,8.42
2018-12-04T04:13:56.549Z,8.45
2018-12-04T04:16:24.921Z,8.38
2018-12-04T04:18:53.168Z,8.29
2018-12-04T04:21:21.463Z,8.25
2018-12-04T04:23:49.708Z,8.33
2018-12-04T04:26:18.112Z,8.26
2018-12-04T04:28:46.396Z,8.19
2018-12-04T04:31:14.724Z,7.97
2018-12-04T04:33:43.112Z,8.16
2018-12-04T04:36:11.375Z,8.03
2018-12-04T04:38:39.634Z,8.06
2018-12-04T04:41:07.901Z,8.00
2018-12-04T04:43:36.140Z,7.94
2018-12-04T04:46:04.496Z,7.96
2018-12-04T04:48:32.745Z,7.95
2018-12-04T04:51:01.054Z,7.95
2018-12-04T04:53:29.546Z,7.98
2018-12-04T04:55:57.831Z,7.94
2018-12-04T04:58:26.115Z,7.96
2018-12-04T05:00:54.373Z,7.71
2018-12-04T05:03:22.605Z,7.76
2018-12-04T05:05:50.912Z,7.64
2018-12-04T05:08:19.184Z,7.75
2018-12-04T05:10:47.438Z,7.71
2018-12-04T05:13:15.699Z,7.94
2018-12-04T05:15:43.955Z,7.86
2018-12-04T05:18:12.282Z,7.89
2018-12-04T05:20:40.573Z,7.94
2018-12-04T05:23:08.916Z,7.91
2018-12-04T05:25:37.217Z,7.91
2018-12-04T05:28:05.513Z,7.99
2018-12-04T05:30:33.771Z,7.92
2018-12-04T05:33:02.012Z,7.84
2018-12-04T05:35:30.280Z,8.09
2018-12-04T05:37:58.557Z,8.06
2018-12-04T05:40:26.808Z,7.95
2018-12-04T05:42:55.095Z,7.87
2018-12-04T05:45:23.396Z,7.84
2018-12-04T05:47:51.660Z,7.86
2018-12-04T05:50:19.915Z,7.85
2018-12-04T05:55:47.441Z,7.88
2018-12-04T05:58:15.684Z,8.03
2018-12-04T06:00:43.941Z,8.03
2018-12-04T06:03:12.214Z,8.00
2018-12-04T06:05:40.474Z,8.00
2018-12-04T06:08:08.826Z,7.85
2018-12-04T06:10:37.135Z,7.69
2018-12-04T06:13:05.408Z,7.78
2018-12-04T06:15:33.708Z,7.88
2018-12-04T06:18:01.956Z,7.92
2018-12-04T06:20:30.277Z,8.07
2018-12-04T06:22:58.573Z,8.09
2018-12-04T06:25:26.806Z,8.08
2018-12-04T06:27:55.073Z,8.20
2018-12-04T06:30:23.333Z,8.15
2018-12-04T06:32:51.575Z,8.25
2018-12-04T06:35:19.901Z,8.30
2018-12-04T06:37:48.172Z,8.27
2018-12-04T06:40:16.441Z,8.23
2018-12-04T06:42:44.699Z,8.09
2018-12-04T06:45:13.019Z,7.91
2018-12-04T06:47:41.259Z,8.08
2018-12-04T06:50:10.793Z,7.99
2018-12-04T06:52:39.341Z,7.96
2018-12-04T06:55:08.727Z,7.80
2018-12-04T06:57:38.212Z,7.88
2018-12-04T07:00:06.858Z,7.89
2018-12-04T07:02:35.144Z,7.99
2018-12-04T07:05:03.654Z,8.17
2018-12-04T07:07:31.944Z,8.32
2018-12-04T07:10:00.194Z,8.37
2018-12-04T07:12:28.444Z,8.42
2018-12-04T07:14:56.715Z,8.50
2018-12-04T07:17:24.972Z,8.43
2018-12-04T07:19:53.242Z,8.40
2018-12-04T07:22:21.530Z,8.35
2018-12-04T07:24:49.779Z,8.22
2018-12-04T07:27:18.032Z,8.08
2018-12-04T07:29:46.424Z,8.03
2018-12-04T07:32:14.656Z,7.98
2018-12-04T07:34:42.939Z,7.89
2018-12-04T07:37:11.210Z,7.82
2018-12-04T07:39:39.489Z,7.70
2018-12-04T07:42:07.770Z,7.63
2018-12-04T07:44:36.061Z,7.57
2018-12-04T07:47:04.419Z,7.50
2018-12-04T07:49:32.721Z,7.44
2018-12-04T07:52:00.973Z,7.34
2018-12-04T07:54:29.282Z,7.36
2018-12-04T07:56:57.621Z,7.30
2018-12-04T07:59:26.385Z,7.26
2018-12-04T08:01:54.876Z,7.24
2018-12-04T08:04:23.200Z,7.21
2018-12-04T08:06:51.476Z,7.21
2018-12-04T08:09:20.963Z,7.12
2018-12-04T08:11:49.221Z,7.15
2018-12-04T08:14:17.499Z,7.06
2018-12-04T08:16:45.754Z,7.05
2018-12-04T08:19:14.043Z,7.09
2018-12-04T08:21:42.401Z,7.22
2018-12-04T08:24:10.642Z,7.46
2018-12-04T08:26:39.076Z,7.69
2018-12-04T08:29:07.569Z,7.51
2018-12-04T08:31:35.855Z,7.63
2018-12-04T08:34:04.154Z,7.80
2018-12-04T08:36:32.421Z,7.80
2018-12-04T08:39:00.797Z,7.85
2018-12-04T08:41:29.040Z,7.69
2018-12-04T08:43:57.336Z,7.80
2018-12-04T08:46:25.579Z,7.75
2018-12-04T08:48:53.848Z,7.73
2018-12-04T08:51:22.108Z,7.96
2018-12-04T08:53:50.407Z,7.70
2018-12-04T08:56:18.688Z,7.74
2018-12-04T08:58:47.156Z,7.81
2018-12-04T09:01:15.433Z,7.72
2018-12-04T09:03:43.724Z,7.83
2018-12-04T09:06:12.049Z,7.83
2018-12-04T09:08:40.502Z,8.00
2018-12-04T09:11:08.848Z,8.05
2018-12-04T09:13:37.185Z,8.04
2018-12-04T09:16:05.545Z,7.97
2018-12-04T09:18:33.814Z,7.96
2018-12-04T09:21:02.173Z,7.75
2018-12-04T09:23:30.501Z,7.94
2018-12-04T09:25:58.879Z,7.98
2018-12-04T09:28:27.180Z,8.04
2018-12-04T09:30:55.461Z,8.55
2018-12-04T09:33:23.719Z,8.69
2018-12-04T09:35:52.060Z,9.03
2018-12-04T09:38:20.325Z,8.92
2018-12-04T09:40:48.825Z,9.18
2018-12-04T09:43:17.084Z,8.88
2018-12-04T09:45:45.356Z,8.91
2018-12-04T09:48:13.653Z,8.74
2018-12-04T09:50:42.024Z,8.79
2018-12-04T09:53:10.303Z,8.71
2018-12-04T09:55:38.584Z,8.66
2018-12-04T09:58:06.819Z,8.65
2018-12-04T10:00:35.100Z,9.15
2018-12-04T10:03:03.381Z,9.11
2018-12-04T10:05:32.155Z,8.79
2018-12-04T10:08:00.585Z,8.77
2018-12-04T10:10:28.855Z,8.33
2018-12-04T10:12:57.195Z,8.16
2018-12-04T10:15:25.578Z,7.82
2018-12-04T10:17:53.900Z,7.71
2018-12-04T10:20:22.150Z,7.46
2018-12-04T10:22:50.406Z,7.26
2018-12-04T10:25:18.660Z,7.24
2018-12-04T10:27:46.912Z,7.26
2018-12-04T10:30:15.202Z,7.26
2018-12-04T10:35:24.237Z,7.08
2018-12-04T10:37:52.485Z,6.76
2018-12-04T10:40:20.736Z,6.56
2018-12-04T10:42:48.995Z,6.49
2018-12-04T10:45:17.264Z,6.47
2018-12-04T10:47:45.505Z,6.52
2018-12-04T10:50:13.765Z,6.55
2018-12-04T10:52:42.044Z,6.63
2018-12-04T10:55:10.321Z,6.67
2018-12-04T10:57:38.610Z,6.78
2018-12-04T11:00:11.265Z,6.84
2018-12-04T11:02:44.527Z,6.89
2018-12-04T11:05:12.847Z,6.88
2018-12-04T11:07:41.104Z,6.63
2018-12-04T11:10:09.353Z,6.73
2018-12-04T11:12:37.604Z,6.72
2018-12-04T11:15:06.158Z,6.63
2018-12-04T11:17:34.495Z,6.45
2018-12-04T11:20:02.973Z,6.69
2018-12-04T11:22:31.213Z,6.63
2018-12-04T11:24:59.541Z,6.74
2018-12-04T11:27:28.065Z,6.97
2018-12-04T11:29:56.313Z,6.97
2018-12-04T11:32:24.554Z,6.89
2018-12-04T11:34:52.833Z,7.06
2018-12-04T11:37:21.072Z,6.99
2018-12-04T11:39:49.328Z,6.89
2018-12-04T11:42:17.622Z,6.80
2018-12-04T11:44:45.909Z,6.91
2018-12-04T11:47:14.148Z,6.71
2018-12-04T11:49:42.391Z,6.98
2018-12-04T11:52:10.646Z,7.04
2018-12-04T11:54:38.909Z,7.26
2018-12-04T11:57:07.153Z,7.23
2018-12-04T11:59:35.404Z,7.29
2018-12-04T12:02:03.809Z,7.27
2018-12-04T12:04:32.102Z,7.64
2018-12-04T12:07:00.332Z,7.85
2018-12-04T12:09:28.588Z,7.55
2018-12-04T12:11:56.889Z,7.45
2018-12-04T12:14:25.128Z,7.26
2018-12-04T12:16:53.448Z,7.21
2018-12-04T12:19:21.731Z,7.14
2018-12-04T12:21:49.965Z,7.03
2018-12-04T12:24:18.232Z,7.31
2018-12-04T12:26:46.523Z,7.41
2018-12-04T12:29:14.769Z,7.27
2018-12-04T12:31:43.023Z,7.32
2018-12-04T12:34:11.284Z,7.42
2018-12-04T12:36:39.552Z,7.34
2018-12-04T12:39:08.389Z,7.72
2018-12-04T12:41:37.907Z,7.93
2018-12-04T12:44:06.310Z,8.00
2018-12-04T12:46:34.563Z,7.83
2018-12-04T12:49:02.828Z,7.75
2018-12-04T12:51:31.088Z,7.57
2018-12-04T12:53:59.367Z,7.63
2018-12-04T12:56:27.705Z,7.49
2018-12-04T12:58:55.960Z,7.46
2018-12-04T13:01:24.234Z,7.24
2018-12-04T13:03:52.484Z,7.32
2018-12-04T13:06:21.340Z,7.35
2018-12-04T13:08:49.617Z,7.54
2018-12-04T13:11:17.868Z,7.35
2018-12-04T13:13:46.117Z,7.30
2018-12-04T13:16:14.508Z,7.23
2018-12-04T13:18:42.846Z,7.14
2018-12-04T13:21:11.108Z,7.11
2018-12-04T13:23:39.477Z,7.08
2018-12-04T13:26:07.745Z,7.05
2018-12-04T13:28:35.992Z,6.89
2018-12-04T13:31:04.353Z,6.87
2018-12-04T13:33:32.692Z,6.70
2018-12-04T13:36:01.004Z,6.55
2018-12-04T13:38:29.303Z,6.60
2018-12-04T13:40:57.562Z,6.71
2018-12-04T13:43:25.891Z,6.79
2018-12-04T13:45:54.387Z,6.63
2018-12-04T13:48:22.727Z,6.54
2018-12-04T13:50:51.087Z,6.65
2018-12-04T13:53:19.457Z,6.60
2018-12-04T13:55:47.812Z,6.76
2018-12-04T13:58:17.302Z,6.68
2018-12-04T14:00:46.431Z,6.76
2018-12-04T14:03:14.881Z,6.78
2018-12-04T14:05:43.284Z,6.75
2018-12-04T14:08:11.595Z,6.67
2018-12-04T14:10:39.941Z,6.71
2018-12-04T14:13:08.196Z,6.56
2018-12-04T14:15:36.560Z,6.23
2018-12-04T14:18:04.906Z,6.13
2018-12-04T14:20:33.224Z,6.49
2018-12-04T14:23:01.523Z,6.10
2018-12-04T14:25:29.893Z,5.99
2018-12-04T14:27:58.184Z,5.76
2018-12-04T14:30:26.446Z,5.82
2018-12-04T14:32:54.777Z,5.97
2018-12-04T14:35:23.082Z,5.72
2018-12-04T14:37:51.352Z,5.70
2018-12-04T14:40:19.659Z,5.83
2018-12-04T14:42:48.053Z,5.79
2018-12-04T14:45:16.405Z,5.57
2018-12-04T14:50:24.267Z,5.38
2018-12-04T14:52:52.607Z,5.39
2018-12-04T14:55:20.885Z,5.41
2018-12-04T14:57:49.237Z,5.38
2018-12-04T15:00:17.685Z,5.38
2018-12-04T15:02:46.084Z,5.17
2018-12-04T15:05:15.694Z,5.20
2018-12-04T15:07:43.973Z,5.24
2018-12-04T15:10:12.221Z,5.04
2018-12-04T15:12:40.513Z,5.03
2018-12-04T15:17:47.288Z,5.04
2018-12-04T15:20:15.643Z,4.98
2018-12-04T15:22:43.979Z,4.93
2018-12-04T15:25:12.393Z,5.03
2018-12-04T15:27:40.702Z,5.02
2018-12-04T15:30:09.290Z,5.06
2018-12-04T15:32:37.620Z,5.15
2018-12-04T15:35:06.262Z,5.10
2018-12-04T15:37:34.554Z,5.23
2018-12-04T15:40:03.272Z,5.16
2018-12-04T15:42:31.614Z,5.17
2018-12-04T15:44:59.978Z,4.90
2018-12-04T15:47:28.298Z,4.86
2018-12-04T15:49:56.616Z,4.82
2018-12-04T15:52:26.192Z,4.67
2018-12-04T15:54:54.563Z,4.73
2018-12-04T15:57:22.879Z,4.70
2018-12-04T15:59:51.168Z,4.72
2018-12-04T16:02:19.492Z,4.68
2018-12-04T16:04:47.752Z,4.76
2018-12-04T16:07:16.153Z,4.80
2018-12-04T16:09:45.048Z,4.84
2018-12-04T16:12:13.314Z,4.89
2018-12-04T16:14:41.558Z,4.88
2018-12-04T16:17:15.155Z,4.93
2018-12-04T16:19:40.204Z,5.00
2018-12-04T16:22:08.669Z,5.03
2018-12-04T16:24:36.988Z,5.06
2018-12-04T16:27:05.295Z,4.97
2018-12-04T16:29:33.565Z,5.26
2018-12-04T16:32:01.816Z,5.44
2018-12-04T16:34:30.291Z,5.30
2018-12-04T16:36:58.541Z,5.50
2018-12-04T16:39:26.827Z,5.40
2018-12-04T16:41:55.087Z,5.32
2018-12-04T16:44:23.360Z,5.27
2018-12-04T16:46:51.623Z,5.28
2018-12-04T16:49:19.903Z,5.25
2018-12-04T16:51:48.196Z,5.69
2018-12-04T16:54:16.462Z,5.71
2018-12-04T16:56:44.708Z,5.58
2018-12-04T16:59:13.281Z,5.48
2018-12-04T17:01:41.583Z,5.35
2018-12-04T17:04:09.899Z,5.28
2018-12-04T17:06:38.279Z,5.42
2018-12-04T17:09:06.997Z,5.29
2018-12-04T17:11:35.260Z,5.22
2018-12-04T17:14:03.584Z,5.22
2018-12-04T17:16:31.880Z,5.18
2018-12-04T17:19:00.187Z,5.43
2018-12-04T17:21:28.429Z,5.29
2018-12-04T17:23:56.808Z,5.23
2018-12-04T17:26:25.104Z,5.30
2018-12-04T17:28:53.385Z,5.31
2018-12-04T17:31:21.671Z,5.59
2018-12-04T17:33:49.920Z,5.49
2018-12-04T17:36:18.549Z,5.36
2018-12-04T17:38:46.793Z,5.36
2018-12-04T17:41:15.060Z,5.41
2018-12-04T17:43:43.311Z,5.75
2018-12-04T17:46:11.592Z,5.56
2018-12-04T17:48:39.848Z,5.79
2018-12-04T17:51:08.092Z,5.59
2018-12-04T17:53:36.427Z,5.68
2018-12-04T17:56:04.828Z,5.55
2018-12-04T17:58:33.118Z,5.48
2018-12-04T18:01:01.457Z,5.41
2018-12-04T18:03:29.706Z,5.44
2018-12-04T18:05:58.008Z,5.33
2018-12-04T18:08:26.272Z,5.28
2018-12-04T18:10:54.637Z,5.39
2018-12-04T18:13:22.916Z,5.55
2018-12-04T18:15:51.221Z,5.40
2018-12-04T18:18:19.482Z,5.38
2018-12-04T18:20:47.749Z,5.47
2018-12-04T18:23:16.021Z,5.45
2018-12-04T18:25:44.301Z,5.45
2018-12-04T18:28:12.565Z,5.37
2018-12-04T18:30:40.959Z,5.46
2018-12-04T18:33:09.248Z,5.38
2018-12-04T18:35:37.597Z,5.46
2018-12-04T18:38:05.849Z,5.48
2018-12-04T18:40:34.103Z,5.43
2018-12-04T18:43:02.417Z,5.44
2018-12-04T18:45:32.110Z,5.38
2018-12-04T18:48:00.769Z,5.49
2018-12-04T18:50:29.130Z,5.44
2018-12-04T18:52:57.401Z,5.30
2018-12-04T18:55:25.712Z,5.25
2018-12-04T18:57:54.056Z,5.30
2018-12-04T19:00:22.352Z,5.32
2018-12-04T19:02:50.645Z,5.29
2018-12-04T19:05:18.943Z,5.33
2018-12-04T19:07:47.293Z,5.31
2018-12-04T19:10:15.596Z,5.42
2018-12-04T19:12:44.064Z,5.39
2018-12-04T19:15:12.367Z,5.35
2018-12-04T19:17:40.641Z,5.34
2018-12-04T19:20:09.004Z,5.35
2018-12-04T19:22:37.315Z,5.36
2018-12-04T19:25:05.887Z,5.33
2018-12-04T19:27:34.156Z,5.32
2018-12-04T19:30:02.594Z,5.56
2018-12-04T19:32:30.919Z,5.87
2018-12-04T19:34:59.200Z,5.60
2018-12-04T19:37:27.519Z,5.82
2018-12-04T19:39:57.034Z,5.55
2018-12-04T19:42:25.411Z,5.55
2018-12-04T19:44:53.681Z,5.60
2018-12-04T19:47:22.000Z,5.55
2018-12-04T19:49:50.572Z,5.29
2018-12-04T19:52:18.970Z,5.41
2018-12-04T19:54:47.245Z,5.30
2018-12-04T19:57:15.588Z,5.48
2018-12-04T19:59:43.844Z,5.46
2018-12-04T20:02:12.140Z,5.26
2018-12-04T20:04:40.468Z,5.34
2018-12-04T20:07:09.161Z,5.23
2018-12-04T20:09:37.472Z,5.30
2018-12-04T20:12:05.997Z,5.12
2018-12-04T20:14:34.261Z,4.98
2018-12-04T20:17:02.512Z,4.92
2018-12-04T20:19:31.100Z,4.82
2018-12-04T20:21:59.766Z,4.73
2018-12-04T20:24:28.241Z,4.74
2018-12-04T20:26:56.678Z,4.77
2018-12-04T20:29:25.209Z,4.71
2018-12-04T20:31:53.664Z,4.68
2018-12-04T20:34:22.051Z,4.70
2018-12-04T20:36:50.311Z,4.89
2018-12-04T20:39:18.818Z,5.18
2018-12-04T20:41:48.364Z,5.33
2018-12-04T20:44:16.962Z,4.96
2018-12-04T20:46:45.252Z,4.76
2018-12-04T20:49:13.567Z,5.01
2018-12-04T20:51:41.825Z,5.15
2018-12-04T20:54:10.161Z,5.32
2018-12-04T20:56:38.440Z,5.14
2018-12-04T20:59:06.812Z,5.30
2018-12-04T21:01:35.140Z,5.35
2018-12-04T21:04:03.665Z,5.28
2018-12-04T21:06:31.936Z,5.36
2018-12-04T21:09:00.518Z,5.41
2018-12-04T21:11:28.780Z,5.24
2018-12-04T21:13:57.314Z,5.49
2018-12-04T21:16:25.556Z,5.48
2018-12-04T21:18:54.090Z,5.30
2018-12-04T21:21:22.346Z,4.96
2018-12-04T21:23:50.833Z,5.03
2018-12-04T21:26:19.073Z,5.08
2018-12-04T21:34:48.333Z,4.83
2018-12-04T21:37:18.583Z,4.93
2018-12-04T21:42:38.577Z,4.89
2018-12-04T21:45:12.320Z,4.87
2018-12-04T21:47:46.148Z,4.97
2018-12-04T21:50:15.414Z,4.89
2018-12-04T21:52:43.708Z,4.82
2018-12-04T21:55:12.040Z,4.98
2018-12-04T21:57:40.606Z,4.86
2018-12-04T22:00:09.034Z,5.01
2018-12-04T22:02:37.267Z,4.86
2018-12-04T22:05:05.932Z,4.86
2018-12-04T22:07:34.187Z,4.81
2018-12-04T22:10:02.625Z,4.78
2018-12-04T22:12:30.908Z,4.78
2018-12-04T22:14:59.202Z,4.82
2018-12-04T22:17:27.451Z,5.23
2018-12-04T22:19:55.740Z,5.12
2018-12-04T22:22:23.994Z,4.96
2018-12-04T22:24:52.303Z,4.82
2018-12-04T22:27:20.568Z,4.86
2018-12-04T22:29:48.833Z,4.93
2018-12-04T22:32:17.106Z,5.17
2018-12-04T22:34:45.504Z,5.10
2018-12-04T22:37:13.874Z,5.02
2018-12-04T22:39:42.179Z,4.89
2018-12-04T22:42:10.424Z,5.32
2018-12-04T22:44:38.756Z,5.27
2018-12-04T22:47:07.053Z,5.20
2018-12-04T22:49:35.345Z,4.93
2018-12-04T22:52:04.267Z,4.74
2018-12-04T22:54:32.561Z,5.00
2018-12-04T22:57:00.901Z,4.85
2018-12-04T22:59:29.192Z,4.94
2018-12-04T23:01:57.561Z,5.06
2018-12-04T23:04:25.956Z,5.08
2018-12-04T23:06:54.232Z,4.92
2018-12-04T23:09:22.508Z,4.74
2018-12-04T23:11:50.789Z,4.76
2018-12-04T23:14:19.320Z,4.80
2018-12-04T23:16:47.578Z,4.68
2018-12-04T23:21:42.212Z,5.15
2018-12-04T23:24:10.467Z,5.12
2018-12-04T23:26:38.762Z,5.01
2018-12-04T23:29:07.015Z,4.76
2018-12-04T23:31:35.261Z,4.66
2018-12-04T23:34:03.786Z,4.70
2018-12-04T23:36:32.309Z,5.08
2018-12-04T23:39:00.559Z,5.08
2018-12-04T23:41:28.892Z,4.99
2018-12-04T23:43:57.158Z,4.85
2018-12-04T23:46:25.506Z,4.95
2018-12-04T23:48:53.827Z,4.92
2018-12-04T23:51:22.072Z,4.93
2018-12-04T23:53:50.329Z,4.74
2018-12-04T23:56:18.626Z,4.89
2018-12-04T23:58:46.981Z,4.97
